KEEO

Meeker Coulter Field Airport

Meeker, Colorado, USA
METAR KEEO 150053Z AUTO 24006KT 10SM SCT110 24/06 A3013 RMK AO2 SLP126 T02390056
Observed Flight Rules
Aug-15 @ 00:53 UTC (11 minutes ago) Visual Flight Rules
Wind Visibility Clouds
240° at 6 knots 10 miles
  • Scattered at 11,000' AGL
Temperatures Readings
Current 24°C / 75°F
Dewpoint 6°C / 43°F
Humidity 31%
Altimeter 30.13" Hg
Pressure 1012.6 hPa
Elevation 1930
METAR KEEO 150053Z AUTO 24006KT 10SM SCT110 24/06 A3013 RMK AO2 SLP126 T02390056
Observed Flight Rules
Aug-15 @ 00:53 UTC
(11 minutes ago)
VFR
Wind Visibility
240° at 6 knots 10 miles
Clouds
  • Scattered at 11,000' AGL
Temperature Dewpoint
24°C / 75°F 6°C / 43°F
Humidity Altimeter Pressure
31% 30.13" Hg 1012.6 hPa